sensor_id;sensor_type;location;lat;lon;timestamp;pressure;altitude;pressure_sealevel;temperature;humidity
77639;BME280;66802;52.574;14.398;2023-05-02T03:00:39;101367.09;;;10.64;64.65
77639;BME280;66802;52.574;14.398;2023-05-02T03:03:06;101367.38;;;10.60;65.02
77639;BME280;66802;52.574;14.398;2023-05-02T03:05:33;101368.78;;;10.55;65.01
77639;BME280;66802;52.574;14.398;2023-05-02T03:07:59;101365.66;;;10.50;65.18
77639;BME280;66802;52.574;14.398;2023-05-02T03:10:25;101373.19;;;10.46;65.21
77639;BME280;66802;52.574;14.398;2023-05-02T03:12:50;101376.59;;;10.48;64.97
77639;BME280;66802;52.574;14.398;2023-05-02T03:17:48;101399.59;;;10.43;64.39
77639;BME280;66802;52.574;14.398;2023-05-02T03:20:14;101399.59;;;10.43;63.90
77639;BME280;66802;52.574;14.398;2023-05-02T03:22:39;101390.25;;;10.47;62.89
77639;BME280;66802;52.574;14.398;2023-05-02T03:25:05;101396.06;;;10.52;62.29
77639;BME280;66802;52.574;14.398;2023-05-02T03:27:31;101395.78;;;10.45;62.26
77639;BME280;66802;52.574;14.398;2023-05-02T03:29:57;101396.34;;;10.49;62.29
77639;BME280;66802;52.574;14.398;2023-05-02T03:32:22;101387.53;;;10.47;62.80
77639;BME280;66802;52.574;14.398;2023-05-02T03:34:48;101398.72;;;10.42;62.76
77639;BME280;66802;52.574;14.398;2023-05-02T03:37:13;101400.56;;;10.42;63.30
77639;BME280;66802;52.574;14.398;2023-05-02T03:39:39;101400.84;;;10.39;63.60
77639;BME280;66802;52.574;14.398;2023-05-02T03:42:05;101411.81;;;10.37;63.35
77639;BME280;66802;52.574;14.398;2023-05-02T03:44:30;101412.38;;;10.41;63.14
77639;BME280;66802;52.574;14.398;2023-05-02T03:46:56;101417.63;;;10.42;63.35
77639;BME280;66802;52.574;14.398;2023-05-02T03:49:21;101425.59;;;10.44;62.83
77639;BME280;66802;52.574;14.398;2023-05-02T03:51:47;101421.31;;;10.41;63.35
77639;BME280;66802;52.574;14.398;2023-05-02T03:54:13;101424.16;;;10.40;63.12
77639;BME280;66802;52.574;14.398;2023-05-02T03:56:38;101431.69;;;10.36;63.23
77639;BME280;66802;52.574;14.398;2023-05-02T03:59:04;101429.94;;;10.26;63.43
77639;BME280;66802;52.574;14.398;2023-05-02T04:01:30;101427.50;;;10.22;63.42
77639;BME280;66802;52.574;14.398;2023-05-02T04:03:56;101433.63;;;10.24;63.38
77639;BME280;66802;52.574;14.398;2023-05-02T04:06:21;101442.00;;;10.31;63.24
77639;BME280;66802;52.574;14.398;2023-05-02T04:08:47;101452.22;;;10.28;63.64
77639;BME280;66802;52.574;14.398;2023-05-02T04:11:13;101447.38;;;10.21;63.92
77639;BME280;66802;52.574;14.398;2023-05-02T04:13:39;101449.59;;;10.16;63.72
77639;BME280;66802;52.574;14.398;2023-05-02T04:16:05;101460.53;;;10.15;64.09
77639;BME280;66802;52.574;14.398;2023-05-02T04:18:30;101474.47;;;10.20;63.87
77639;BME280;66802;52.574;14.398;2023-05-02T04:20:56;101478.56;;;10.14;63.80
77639;BME280;66802;52.574;14.398;2023-05-02T04:23:21;101480.06;;;10.07;64.08
77639;BME280;66802;52.574;14.398;2023-05-02T04:25:54;101481.91;;;10.07;64.17
77639;BME280;66802;52.574;14.398;2023-05-02T04:28:21;101496.66;;;10.03;64.32
77639;BME280;66802;52.574;14.398;2023-05-02T04:30:48;101502.91;;;10.03;64.51
77639;BME280;66802;52.574;14.398;2023-05-02T04:33:14;101498.94;;;10.07;64.10
77639;BME280;66802;52.574;14.398;2023-05-02T04:35:40;101504.03;;;10.01;64.46
77639;BME280;66802;52.574;14.398;2023-05-02T04:38:06;101501.00;;;9.94;64.51
77639;BME280;66802;52.574;14.398;2023-05-02T04:40:33;101507.94;;;9.97;64.75
77639;BME280;66802;52.574;14.398;2023-05-02T04:42:58;101507.81;;;9.98;64.75
77639;BME280;66802;52.574;14.398;2023-05-02T04:45:24;101522.91;;;10.01;65.21
77639;BME280;66802;52.574;14.398;2023-05-02T04:47:50;101537.00;;;10.04;65.28
77639;BME280;66802;52.574;14.398;2023-05-02T04:50:16;101530.44;;;10.07;65.06
77639;BME280;66802;52.574;14.398;2023-05-02T04:52:41;101537.19;;;10.12;65.14
77639;BME280;66802;52.574;14.398;2023-05-02T04:55:07;101543.31;;;10.14;65.34
77639;BME280;66802;52.574;14.398;2023-05-02T04:57:32;101549.44;;;10.16;65.28
77639;BME280;66802;52.574;14.398;2023-05-02T04:59:58;101542.78;;;10.20;65.32
77639;BME280;66802;52.574;14.398;2023-05-02T05:02:24;101535.56;;;10.21;65.28
77639;BME280;66802;52.574;14.398;2023-05-02T05:04:51;101536.06;;;10.15;65.67
77639;BME280;66802;52.574;14.398;2023-05-02T05:07:16;101548.19;;;10.20;65.56
77639;BME280;66802;52.574;14.398;2023-05-02T05:09:42;101550.50;;;10.25;65.53
77639;BME280;66802;52.574;14.398;2023-05-02T05:12:07;101548.00;;;10.33;65.46
77639;BME280;66802;52.574;14.398;2023-05-02T05:14:33;101566.34;;;10.39;65.28
77639;BME280;66802;52.574;14.398;2023-05-02T05:16:59;101569.91;;;10.40;65.23
77639;BME280;66802;52.574;14.398;2023-05-02T05:19:24;101580.84;;;10.38;65.71
77639;BME280;66802;52.574;14.398;2023-05-02T05:21:50;101580.44;;;10.43;65.76
77639;BME280;66802;52.574;14.398;2023-05-02T05:24:16;101589.06;;;10.57;65.98
77639;BME280;66802;52.574;14.398;2023-05-02T05:26:41;101593.78;;;10.65;65.88
77639;BME280;66802;52.574;14.398;2023-05-02T05:29:07;101596.94;;;10.70;66.30
77639;BME280;66802;52.574;14.398;2023-05-02T05:31:33;101601.06;;;10.74;65.89
77639;BME280;66802;52.574;14.398;2023-05-02T05:33:58;101591.75;;;10.88;65.38
77639;BME280;66802;52.574;14.398;2023-05-02T05:36:25;101600.00;;;10.86;65.96
77639;BME280;66802;52.574;14.398;2023-05-02T05:38:52;101599.59;;;10.91;66.27
77639;BME280;66802;52.574;14.398;2023-05-02T05:41:17;101608.00;;;10.97;65.50
77639;BME280;66802;52.574;14.398;2023-05-02T05:43:43;101614.78;;;11.13;65.70
77639;BME280;66802;52.574;14.398;2023-05-02T05:46:08;101618.63;;;11.20;64.94
77639;BME280;66802;52.574;14.398;2023-05-02T05:48:34;101622.09;;;11.31;65.36
77639;BME280;66802;52.574;14.398;2023-05-02T05:51:06;101627.22;;;11.34;65.14
77639;BME280;66802;52.574;14.398;2023-05-02T05:53:32;101624.69;;;11.43;65.22
77639;BME280;66802;52.574;14.398;2023-05-02T05:55:58;101633.22;;;11.48;64.18
77639;BME280;66802;52.574;14.398;2023-05-02T05:58:23;101634.78;;;11.50;65.13
77639;BME280;66802;52.574;14.398;2023-05-02T06:00:49;101642.63;;;11.53;64.47
77639;BME280;66802;52.574;14.398;2023-05-02T06:03:14;101653.75;;;11.60;64.32
77639;BME280;66802;52.574;14.398;2023-05-02T06:05:40;101659.59;;;11.65;63.75
77639;BME280;66802;52.574;14.398;2023-05-02T06:08:06;101656.06;;;11.74;64.16
77639;BME280;66802;52.574;14.398;2023-05-02T06:10:33;101663.09;;;11.77;64.01
77639;BME280;66802;52.574;14.398;2023-05-02T06:12:58;101677.75;;;11.84;63.15
77639;BME280;66802;52.574;14.398;2023-05-02T06:15:24;101672.94;;;11.97;63.78
77639;BME280;66802;52.574;14.398;2023-05-02T06:17:50;101675.50;;;12.08;61.85
77639;BME280;66802;52.574;14.398;2023-05-02T06:20:16;101680.06;;;12.27;62.04
77639;BME280;66802;52.574;14.398;2023-05-02T06:22:42;101684.09;;;12.32;62.12
77639;BME280;66802;52.574;14.398;2023-05-02T06:25:07;101694.91;;;12.52;61.37
77639;BME280;66802;52.574;14.398;2023-05-02T06:27:33;101694.91;;;12.52;61.87
77639;BME280;66802;52.574;14.398;2023-05-02T06:29:59;101692.91;;;12.63;61.58
77639;BME280;66802;52.574;14.398;2023-05-02T06:32:29;101697.69;;;12.89;60.54
77639;BME280;66802;52.574;14.398;2023-05-02T06:34:55;101697.94;;;13.05;61.07
77639;BME280;66802;52.574;14.398;2023-05-02T06:37:20;101705.34;;;13.22;60.65
77639;BME280;66802;52.574;14.398;2023-05-02T06:39:46;101710.16;;;13.38;60.54
77639;BME280;66802;52.574;14.398;2023-05-02T06:42:11;101715.63;;;13.56;60.42
77639;BME280;66802;52.574;14.398;2023-05-02T06:44:37;101715.00;;;13.71;59.70
77639;BME280;66802;52.574;14.398;2023-05-02T06:47:04;101724.31;;;13.86;58.60
77639;BME280;66802;52.574;14.398;2023-05-02T06:49:30;101731.25;;;13.99;58.43
77639;BME280;66802;52.574;14.398;2023-05-02T06:51:56;101729.59;;;14.15;58.72
77639;BME280;66802;52.574;14.398;2023-05-02T06:54:21;101733.00;;;14.35;57.86
77639;BME280;66802;52.574;14.398;2023-05-02T06:56:47;101735.16;;;14.59;57.75
77639;BME280;66802;52.574;14.398;2023-05-02T06:59:13;101742.41;;;14.76;56.92
77639;BME280;66802;52.574;14.398;2023-05-02T07:01:40;101742.88;;;14.89;56.75
77639;BME280;66802;52.574;14.398;2023-05-02T07:04:06;101757.06;;;15.01;55.71
77639;BME280;66802;52.574;14.398;2023-05-02T07:06:32;101755.72;;;15.05;55.00
77639;BME280;66802;52.574;14.398;2023-05-02T07:08:57;101761.59;;;15.18;55.57
77639;BME280;66802;52.574;14.398;2023-05-02T07:11:23;101758.28;;;15.24;55.15
77639;BME280;66802;52.574;14.398;2023-05-02T07:13:49;101756.34;;;15.43;56.65
77639;BME280;66802;52.574;14.398;2023-05-02T07:16:15;101752.72;;;15.60;56.07
77639;BME280;66802;52.574;14.398;2023-05-02T07:18:41;101770.19;;;15.83;55.42
77639;BME280;66802;52.574;14.398;2023-05-02T07:21:07;101769.56;;;15.97;53.13
77639;BME280;66802;52.574;14.398;2023-05-02T07:23:33;101768.56;;;15.98;53.28
77639;BME280;66802;52.574;14.398;2023-05-02T07:25:59;101777.53;;;15.91;53.92
77639;BME280;66802;52.574;14.398;2023-05-02T07:28:24;101779.47;;;15.64;54.72
77639;BME280;66802;52.574;14.398;2023-05-02T07:30:50;101780.88;;;15.51;55.55
77639;BME280;66802;52.574;14.398;2023-05-02T07:33:15;101789.59;;;15.54;55.88
77639;BME280;66802;52.574;14.398;2023-05-02T07:35:41;101790.41;;;15.81;54.15
77639;BME280;66802;52.574;14.398;2023-05-02T07:38:07;101790.00;;;16.01;55.16
77639;BME280;66802;52.574;14.398;2023-05-02T07:40:32;101789.22;;;16.17;53.79
77639;BME280;66802;52.574;14.398;2023-05-02T07:43:00;101791.78;;;16.19;52.52
77639;BME280;66802;52.574;14.398;2023-05-02T07:45:25;101793.53;;;16.36;51.96
77639;BME280;66802;52.574;14.398;2023-05-02T07:47:51;101810.25;;;16.49;52.23
77639;BME280;66802;52.574;14.398;2023-05-02T07:50:17;101808.94;;;16.61;51.45
77639;BME280;66802;52.574;14.398;2023-05-02T07:52:42;101812.38;;;16.71;52.32
77639;BME280;66802;52.574;14.398;2023-05-02T07:55:08;101814.47;;;16.94;52.12
77639;BME280;66802;52.574;14.398;2023-05-02T07:57:34;101817.19;;;16.86;51.84
77639;BME280;66802;52.574;14.398;2023-05-02T07:59:59;101825.03;;;16.97;50.56
77639;BME280;66802;52.574;14.398;2023-05-02T08:02:25;101810.69;;;17.11;51.67
77639;BME280;66802;52.574;14.398;2023-05-02T08:04:51;101816.34;;;17.26;51.94
77639;BME280;66802;52.574;14.398;2023-05-02T08:07:17;101822.63;;;17.34;50.41
77639;BME280;66802;52.574;14.398;2023-05-02T08:09:42;101819.56;;;17.21;51.86
77639;BME280;66802;52.574;14.398;2023-05-02T08:12:08;101820.41;;;16.89;51.99
77639;BME280;66802;52.574;14.398;2023-05-02T08:14:33;101831.66;;;17.10;52.61
77639;BME280;66802;52.574;14.398;2023-05-02T08:17:00;101834.59;;;17.25;51.16
77639;BME280;66802;52.574;14.398;2023-05-02T08:19:26;101840.53;;;17.12;51.01
77639;BME280;66802;52.574;14.398;2023-05-02T08:21:55;101840.03;;;16.93;52.70
77639;BME280;66802;52.574;14.398;2023-05-02T08:24:20;101842.59;;;16.94;52.93
77639;BME280;66802;52.574;14.398;2023-05-02T08:26:46;101853.88;;;17.07;52.39
77639;BME280;66802;52.574;14.398;2023-05-02T08:29:12;101858.13;;;17.26;52.59
77639;BME280;66802;52.574;14.398;2023-05-02T08:31:39;101854.38;;;17.35;50.39
77639;BME280;66802;52.574;14.398;2023-05-02T08:34:05;101854.84;;;17.55;49.55
77639;BME280;66802;52.574;14.398;2023-05-02T08:36:30;101852.66;;;17.50;51.22
77639;BME280;66802;52.574;14.398;2023-05-02T08:38:56;101863.41;;;17.36;52.53
77639;BME280;66802;52.574;14.398;2023-05-02T08:41:22;101869.72;;;17.28;51.08
77639;BME280;66802;52.574;14.398;2023-05-02T08:43:48;101857.44;;;17.48;50.62
77639;BME280;66802;52.574;14.398;2023-05-02T08:46:16;101866.81;;;17.62;50.47
77639;BME280;66802;52.574;14.398;2023-05-02T08:48:44;101868.19;;;17.66;51.30
77639;BME280;66802;52.574;14.398;2023-05-02T08:51:12;101868.88;;;17.52;50.73
77639;BME280;66802;52.574;14.398;2023-05-02T08:53:39;101879.94;;;17.34;51.01
77639;BME280;66802;52.574;14.398;2023-05-02T08:56:09;101880.13;;;17.25;51.46
77639;BME280;66802;52.574;14.398;2023-05-02T08:58:37;101889.81;;;17.03;51.90
77639;BME280;66802;52.574;14.398;2023-05-02T09:01:09;101889.81;;;16.87;52.50
77639;BME280;66802;52.574;14.398;2023-05-02T09:03:36;101885.34;;;16.77;52.16
77639;BME280;66802;52.574;14.398;2023-05-02T09:08:40;101897.88;;;16.54;52.89
77639;BME280;66802;52.574;14.398;2023-05-02T09:11:08;101893.44;;;16.53;53.79
77639;BME280;66802;52.574;14.398;2023-05-02T09:18:40;101900.22;;;17.97;50.58
77639;BME280;66802;52.574;14.398;2023-05-02T09:21:09;101909.34;;;18.36;49.96
77639;BME280;66802;52.574;14.398;2023-05-02T09:26:26;101909.34;;;18.28;47.62
77639;BME280;66802;52.574;14.398;2023-05-02T09:29:00;101903.41;;;18.24;48.01
77639;BME280;66802;52.574;14.398;2023-05-02T09:31:31;101918.34;;;18.06;48.86
77639;BME280;66802;52.574;14.398;2023-05-02T09:34:13;101920.56;;;17.86;50.90
77639;BME280;66802;52.574;14.398;2023-05-02T09:39:11;101929.63;;;17.38;51.44
77639;BME280;66802;52.574;14.398;2023-05-02T09:41:44;101940.16;;;17.33;51.30
77639;BME280;66802;52.574;14.398;2023-05-02T09:44:13;101935.75;;;17.40;52.06
77639;BME280;66802;52.574;14.398;2023-05-02T09:46:44;101941.03;;;17.33;51.40
77639;BME280;66802;52.574;14.398;2023-05-02T09:49:09;101934.22;;;17.29;50.64
77639;BME280;66802;52.574;14.398;2023-05-02T09:51:35;101928.25;;;17.50;50.92
77639;BME280;66802;52.574;14.398;2023-05-02T09:54:01;101942.09;;;17.81;50.34
77639;BME280;66802;52.574;14.398;2023-05-02T09:56:27;101940.34;;;17.96;51.45
77639;BME280;66802;52.574;14.398;2023-05-02T09:59:19;101941.91;;;17.91;50.28
77639;BME280;66802;52.574;14.398;2023-05-02T10:01:45;101938.84;;;17.77;49.44
77639;BME280;66802;52.574;14.398;2023-05-02T10:04:18;101938.66;;;17.55;50.06
77639;BME280;66802;52.574;14.398;2023-05-02T10:06:46;101934.38;;;17.44;51.35
77639;BME280;66802;52.574;14.398;2023-05-02T10:09:14;101933.91;;;17.73;49.92
77639;BME280;66802;52.574;14.398;2023-05-02T10:11:41;101942.56;;;18.09;49.27
77639;BME280;66802;52.574;14.398;2023-05-02T10:14:10;101942.38;;;18.10;48.97
77639;BME280;66802;52.574;14.398;2023-05-02T10:19:22;101963.41;;;17.85;50.69
77639;BME280;66802;52.574;14.398;2023-05-02T10:21:49;101965.13;;;17.78;50.30
77639;BME280;66802;52.574;14.398;2023-05-02T10:24:15;101972.09;;;17.48;50.51
77639;BME280;66802;52.574;14.398;2023-05-02T10:26:42;101966.59;;;17.24;50.97
77639;BME280;66802;52.574;14.398;2023-05-02T10:29:10;101978.16;;;17.10;51.94
77639;BME280;66802;52.574;14.398;2023-05-02T10:31:37;101975.41;;;17.02;53.19
77639;BME280;66802;52.574;14.398;2023-05-02T10:34:06;101966.44;;;17.26;51.09
77639;BME280;66802;52.574;14.398;2023-05-02T10:36:35;101962.16;;;17.31;50.43
77639;BME280;66802;52.574;14.398;2023-05-02T10:39:01;101971.69;;;17.11;50.93
77639;BME280;66802;52.574;14.398;2023-05-02T10:41:30;101974.88;;;16.98;52.02
77639;BME280;66802;52.574;14.398;2023-05-02T10:43:57;101983.78;;;17.00;52.97
77639;BME280;66802;52.574;14.398;2023-05-02T10:46:34;101987.19;;;17.02;51.50
77639;BME280;66802;52.574;14.398;2023-05-02T10:51:29;101993.34;;;17.04;52.23
77639;BME280;66802;52.574;14.398;2023-05-02T10:59:35;102002.97;;;16.57;52.51
77639;BME280;66802;52.574;14.398;2023-05-02T11:02:02;102006.69;;;16.48;53.02
77639;BME280;66802;52.574;14.398;2023-05-02T11:04:59;102006.50;;;16.41;53.20
77639;BME280;66802;52.574;14.398;2023-05-02T11:07:26;102009.72;;;16.44;52.85
77639;BME280;66802;52.574;14.398;2023-05-02T11:09:51;102010.31;;;16.56;52.64
77639;BME280;66802;52.574;14.398;2023-05-02T11:12:48;102013.22;;;16.89;54.78
77639;BME280;66802;52.574;14.398;2023-05-02T11:18:12;102001.78;;;17.43;50.33
77639;BME280;66802;52.574;14.398;2023-05-02T11:20:43;102008.00;;;17.70;52.00
77639;BME280;66802;52.574;14.398;2023-05-02T11:25:43;102013.72;;;17.42;51.25
77639;BME280;66802;52.574;14.398;2023-05-02T11:31:04;102012.16;;;16.73;51.52
77639;BME280;66802;52.574;14.398;2023-05-02T11:33:31;102017.88;;;16.62;52.12
77639;BME280;66802;52.574;14.398;2023-05-02T11:35:57;102031.88;;;16.41;52.48
77639;BME280;66802;52.574;14.398;2023-05-02T11:38:24;102034.44;;;16.17;53.28
77639;BME280;66802;52.574;14.398;2023-05-02T11:40:56;102038.97;;;16.09;54.02
77639;BME280;66802;52.574;14.398;2023-05-02T11:43:24;102038.13;;;15.90;53.12
77639;BME280;66802;52.574;14.398;2023-05-02T11:45:51;102044.22;;;15.84;55.08
77639;BME280;66802;52.574;14.398;2023-05-02T11:48:19;102053.78;;;15.70;55.22
77639;BME280;66802;52.574;14.398;2023-05-02T11:50:52;102058.78;;;15.48;55.92
77639;BME280;66802;52.574;14.398;2023-05-02T11:53:21;102058.09;;;15.46;55.70
77639;BME280;66802;52.574;14.398;2023-05-02T11:55:53;102062.69;;;15.18;57.99
77639;BME280;66802;52.574;14.398;2023-05-02T11:58:21;102070.72;;;15.19;57.86
77639;BME280;66802;52.574;14.398;2023-05-02T12:00:48;102070.91;;;15.08;58.32
77639;BME280;66802;52.574;14.398;2023-05-02T12:05:51;102098.56;;;14.67;59.39
77639;BME280;66802;52.574;14.398;2023-05-02T12:08:27;102097.84;;;14.65;59.98
77639;BME280;66802;52.574;14.398;2023-05-02T12:10:55;102096.25;;;14.72;60.04
77639;BME280;66802;52.574;14.398;2023-05-02T12:13:23;102101.31;;;14.57;60.46
77639;BME280;66802;52.574;14.398;2023-05-02T12:15:50;102094.75;;;14.50;60.78
77639;BME280;66802;52.574;14.398;2023-05-02T12:18:17;102109.34;;;14.58;60.13
77639;BME280;66802;52.574;14.398;2023-05-02T12:20:44;102109.56;;;14.75;59.37
77639;BME280;66802;52.574;14.398;2023-05-02T12:23:12;102115.56;;;14.78;59.41
77639;BME280;66802;52.574;14.398;2023-05-02T12:25:41;102112.84;;;14.78;59.39
77639;BME280;66802;52.574;14.398;2023-05-02T12:28:08;102117.72;;;14.75;59.45
77639;BME280;66802;52.574;14.398;2023-05-02T12:30:38;102117.13;;;14.71;59.37
77639;BME280;66802;52.574;14.398;2023-05-02T12:33:05;102128.31;;;14.68;59.35
77639;BME280;66802;52.574;14.398;2023-05-02T12:35:32;102122.91;;;14.68;59.33
77639;BME280;66802;52.574;14.398;2023-05-02T12:40:33;102130.16;;;14.77;59.38
77639;BME280;66802;52.574;14.398;2023-05-02T12:43:01;102132.66;;;14.98;58.35
77639;BME280;66802;52.574;14.398;2023-05-02T12:45:32;102132.88;;;15.14;58.36
77639;BME280;66802;52.574;14.398;2023-05-02T12:48:00;102128.31;;;15.42;58.02
77639;BME280;66802;52.574;14.398;2023-05-02T12:50:36;102131.50;;;15.65;57.26
77639;BME280;66802;52.574;14.398;2023-05-02T12:53:02;102137.88;;;15.74;56.93
77639;BME280;66802;52.574;14.398;2023-05-02T12:55:29;102145.88;;;15.57;55.56
77639;BME280;66802;52.574;14.398;2023-05-02T12:58:04;102152.44;;;15.27;56.33
77639;BME280;66802;52.574;14.398;2023-05-02T13:00:31;102158.09;;;15.07;56.55
77639;BME280;66802;52.574;14.398;2023-05-02T13:02:57;102161.63;;;14.80;56.82
77639;BME280;66802;52.574;14.398;2023-05-02T13:05:23;102162.97;;;14.56;57.38
77639;BME280;66802;52.574;14.398;2023-05-02T13:07:49;102162.41;;;14.43;57.12
77639;BME280;66802;52.574;14.398;2023-05-02T13:10:15;102170.69;;;14.22;58.08
77639;BME280;66802;52.574;14.398;2023-05-02T13:12:43;102166.50;;;14.28;58.29
77639;BME280;66802;52.574;14.398;2023-05-02T13:15:09;102172.41;;;14.23;57.59
77639;BME280;66802;52.574;14.398;2023-05-02T13:17:35;102184.53;;;14.10;58.35
77639;BME280;66802;52.574;14.398;2023-05-02T13:20:01;102186.84;;;14.05;58.26
77639;BME280;66802;52.574;14.398;2023-05-02T13:22:27;102187.97;;;13.93;58.42
77639;BME280;66802;52.574;14.398;2023-05-02T13:24:53;102190.09;;;13.99;58.09
77639;BME280;66802;52.574;14.398;2023-05-02T13:27:22;102191.66;;;13.92;58.27
77639;BME280;66802;52.574;14.398;2023-05-02T13:29:49;102194.78;;;13.87;58.36
77639;BME280;66802;52.574;14.398;2023-05-02T13:32:15;102189.63;;;13.74;58.80
77639;BME280;66802;52.574;14.398;2023-05-02T13:34:41;102193.34;;;13.73;58.80
77639;BME280;66802;52.574;14.398;2023-05-02T13:37:07;102183.78;;;13.79;59.16
77639;BME280;66802;52.574;14.398;2023-05-02T13:39:33;102190.94;;;13.89;59.06
77639;BME280;66802;52.574;14.398;2023-05-02T13:41:59;102195.41;;;14.10;58.76
77639;BME280;66802;52.574;14.398;2023-05-02T13:44:28;102202.81;;;14.17;57.33
77639;BME280;66802;52.574;14.398;2023-05-02T13:46:54;102195.41;;;14.39;57.50
77639;BME280;66802;52.574;14.398;2023-05-02T13:49:20;102197.59;;;14.45;57.16
77639;BME280;66802;52.574;14.398;2023-05-02T13:51:46;102190.56;;;14.52;55.63
77639;BME280;66802;52.574;14.398;2023-05-02T13:54:12;102193.59;;;14.49;54.93
77639;BME280;66802;52.574;14.398;2023-05-02T13:56:38;102199.69;;;14.60;54.67
77639;BME280;66802;52.574;14.398;2023-05-02T13:59:05;102193.88;;;14.46;55.22
77639;BME280;66802;52.574;14.398;2023-05-02T14:01:31;102196.72;;;14.44;56.04
77639;BME280;66802;52.574;14.398;2023-05-02T14:03:57;102200.13;;;14.37;55.79
77639;BME280;66802;52.574;14.398;2023-05-02T14:06:23;102203.75;;;14.47;55.47
77639;BME280;66802;52.574;14.398;2023-05-02T14:08:49;102214.03;;;14.43;55.64
77639;BME280;66802;52.574;14.398;2023-05-02T14:11:17;102207.72;;;14.52;54.34
77639;BME280;66802;52.574;14.398;2023-05-02T14:13:43;102206.00;;;14.61;53.43
77639;BME280;66802;52.574;14.398;2023-05-02T14:16:09;102204.56;;;14.76;53.95
77639;BME280;66802;52.574;14.398;2023-05-02T14:18:35;102213.13;;;14.72;54.02
77639;BME280;66802;52.574;14.398;2023-05-02T14:21:01;102212.84;;;14.75;54.22
77639;BME280;66802;52.574;14.398;2023-05-02T14:23:28;102215.16;;;14.70;54.20
77639;BME280;66802;52.574;14.398;2023-05-02T14:25:54;102214.47;;;14.58;54.18
77639;BME280;66802;52.574;14.398;2023-05-02T14:28:20;102213.31;;;14.51;52.67
77639;BME280;66802;52.574;14.398;2023-05-02T14:30:49;102216.88;;;14.42;53.54
77639;BME280;66802;52.574;14.398;2023-05-02T14:33:15;102227.88;;;14.50;54.40
77639;BME280;66802;52.574;14.398;2023-05-02T14:35:41;102233.50;;;14.48;53.32
77639;BME280;66802;52.574;14.398;2023-05-02T14:38:07;102234.63;;;14.55;53.29
77639;BME280;66802;52.574;14.398;2023-05-02T14:40:33;102228.59;;;14.52;54.39
77639;BME280;66802;52.574;14.398;2023-05-02T14:42:58;102235.03;;;14.41;54.10
77639;BME280;66802;52.574;14.398;2023-05-02T14:45:24;102236.16;;;14.39;54.28
77639;BME280;66802;52.574;14.398;2023-05-02T14:47:49;102236.22;;;14.48;52.17
77639;BME280;66802;52.574;14.398;2023-05-02T14:50:16;102237.63;;;14.43;51.90
77639;BME280;66802;52.574;14.398;2023-05-02T14:52:42;102238.19;;;14.37;53.04
77639;BME280;66802;52.574;14.398;2023-05-02T14:55:11;102244.06;;;14.42;52.86
77639;BME280;66802;52.574;14.398;2023-05-02T14:57:36;102242.47;;;14.39;52.97
77639;BME280;66802;52.574;14.398;2023-05-02T15:00:03;102250.34;;;14.42;52.23
77639;BME280;66802;52.574;14.398;2023-05-02T15:02:29;102243.47;;;14.38;51.67
77639;BME280;66802;52.574;14.398;2023-05-02T15:04:54;102246.31;;;14.27;51.26
77639;BME280;66802;52.574;14.398;2023-05-02T15:07:20;102259.91;;;14.27;53.21
77639;BME280;66802;52.574;14.398;2023-05-02T15:09:46;102257.47;;;14.24;53.60
77639;BME280;66802;52.574;14.398;2023-05-02T15:12:11;102271.72;;;14.07;52.70
77639;BME280;66802;52.574;14.398;2023-05-02T15:14:37;102271.63;;;13.78;52.28
77639;BME280;66802;52.574;14.398;2023-05-02T15:17:02;102283.44;;;13.67;53.77
77639;BME280;66802;52.574;14.398;2023-05-02T15:19:28;102277.44;;;13.64;54.37
77639;BME280;66802;52.574;14.398;2023-05-02T15:21:53;102285.66;;;13.52;54.05
77639;BME280;66802;52.574;14.398;2023-05-02T15:24:21;102287.81;;;13.49;53.79
77639;BME280;66802;52.574;14.398;2023-05-02T15:26:49;102291.97;;;13.32;54.28
77639;BME280;66802;52.574;14.398;2023-05-02T15:29:16;102296.53;;;13.32;53.85
77639;BME280;66802;52.574;14.398;2023-05-02T15:31:41;102302.69;;;13.34;53.94
77639;BME280;66802;52.574;14.398;2023-05-02T15:34:07;102301.66;;;13.25;53.73
77639;BME280;66802;52.574;14.398;2023-05-02T15:36:33;102307.34;;;13.22;52.85
77639;BME280;66802;52.574;14.398;2023-05-02T15:39:02;102311.75;;;13.02;52.82
77639;BME280;66802;52.574;14.398;2023-05-02T15:41:28;102313.84;;;12.99;52.95
77639;BME280;66802;52.574;14.398;2023-05-02T15:43:54;102317.22;;;12.91;52.84
77639;BME280;66802;52.574;14.398;2023-05-02T15:46:20;102320.66;;;12.93;53.14
77639;BME280;66802;52.574;14.398;2023-05-02T15:48:46;102314.75;;;12.88;53.21
77639;BME280;66802;52.574;14.398;2023-05-02T15:51:12;102324.91;;;12.86;53.25
77639;BME280;66802;52.574;14.398;2023-05-02T15:53:38;102321.59;;;12.83;54.40
77639;BME280;66802;52.574;14.398;2023-05-02T15:56:12;102323.44;;;12.82;53.47
77639;BME280;66802;52.574;14.398;2023-05-02T15:58:39;102327.59;;;12.65;53.80
77639;BME280;66802;52.574;14.398;2023-05-02T16:01:05;102332.25;;;12.63;52.18
77639;BME280;66802;52.574;14.398;2023-05-02T16:03:31;102332.72;;;12.68;54.94
77639;BME280;66802;52.574;14.398;2023-05-02T16:05:58;102334.47;;;12.58;53.55
77639;BME280;66802;52.574;14.398;2023-05-02T16:08:25;102343.50;;;12.48;54.08
77639;BME280;66802;52.574;14.398;2023-05-02T16:10:51;102350.31;;;12.42;53.39
77639;BME280;66802;52.574;14.398;2023-05-02T16:13:17;102351.63;;;12.48;53.80
77639;BME280;66802;52.574;14.398;2023-05-02T16:15:43;102355.63;;;12.32;53.24
77639;BME280;66802;52.574;14.398;2023-05-02T16:18:09;102358.81;;;12.26;52.92